sensor_id;sensor_type;location;lat;lon;timestamp;noise_LAeq;noise_LA_min;noise_LA_max;noise_LA01;noise_LA95
77729;Laerm;68312;53.502;10.030;2023-06-19T00:00:53;44.32;39.46;51.65;;
77729;Laerm;68312;53.502;10.030;2023-06-19T00:03:18;45.02;41.13;50.90;;
77729;Laerm;68312;53.502;10.030;2023-06-19T00:05:44;44.73;40.02;51.12;;
77729;Laerm;68312;53.502;10.030;2023-06-19T00:08:09;43.10;38.66;50.32;;
77729;Laerm;68312;53.502;10.030;2023-06-19T00:10:35;43.46;39.04;56.61;;
77729;Laerm;68312;53.502;10.030;2023-06-19T00:13:00;43.23;39.42;49.02;;
77729;Laerm;68312;53.502;10.030;2023-06-19T00:15:26;43.15;38.46;49.32;;
77729;Laerm;68312;53.502;10.030;2023-06-19T00:17:51;43.74;39.12;51.65;;
77729;Laerm;68312;53.502;10.030;2023-06-19T00:20:17;46.07;41.55;54.50;;
77729;Laerm;68312;53.502;10.030;2023-06-19T00:22:42;43.75;39.61;51.45;;
77729;Laerm;68312;53.502;10.030;2023-06-19T00:25:08;42.99;38.06;49.44;;
77729;Laerm;68312;53.502;10.030;2023-06-19T00:27:34;43.03;38.55;54.90;;
77729;Laerm;68312;53.502;10.030;2023-06-19T00:29:59;44.63;39.94;50.90;;
77729;Laerm;68312;53.502;10.030;2023-06-19T00:32:24;44.37;39.22;49.49;;
77729;Laerm;68312;53.502;10.030;2023-06-19T00:34:51;41.88;38.02;48.65;;
77729;Laerm;68312;53.502;10.030;2023-06-19T00:37:16;44.29;39.95;55.76;;
77729;Laerm;68312;53.502;10.030;2023-06-19T00:39:43;43.44;39.61;48.80;;
77729;Laerm;68312;53.502;10.030;2023-06-19T00:42:08;46.03;40.77;55.95;;
77729;Laerm;68312;53.502;10.030;2023-06-19T00:44:34;45.57;41.74;51.87;;
77729;Laerm;68312;53.502;10.030;2023-06-19T00:47:02;46.25;40.24;57.90;;
77729;Laerm;68312;53.502;10.030;2023-06-19T00:49:31;43.83;39.68;49.55;;
77729;Laerm;68312;53.502;10.030;2023-06-19T00:51:57;44.66;40.65;53.56;;
77729;Laerm;68312;53.502;10.030;2023-06-19T00:54:23;45.16;40.54;52.94;;
77729;Laerm;68312;53.502;10.030;2023-06-19T00:56:49;45.04;41.34;51.96;;
77729;Laerm;68312;53.502;10.030;2023-06-19T00:59:18;44.65;41.08;51.77;;
77729;Laerm;68312;53.502;10.030;2023-06-19T01:01:46;44.14;39.97;50.24;;
77729;Laerm;68312;53.502;10.030;2023-06-19T01:04:12;45.29;41.51;51.57;;
77729;Laerm;68312;53.502;10.030;2023-06-19T01:07:01;45.69;40.77;52.78;;
77729;Laerm;68312;53.502;10.030;2023-06-19T01:09:51;43.26;38.25;51.52;;
77729;Laerm;68312;53.502;10.030;2023-06-19T01:12:28;44.23;39.12;52.37;;
77729;Laerm;68312;53.502;10.030;2023-06-19T01:15:03;44.46;41.25;49.91;;
77729;Laerm;68312;53.502;10.030;2023-06-19T01:17:30;43.94;40.35;47.73;;
77729;Laerm;68312;53.502;10.030;2023-06-19T01:19:58;43.87;39.16;50.35;;
77729;Laerm;68312;53.502;10.030;2023-06-19T01:22:29;43.92;39.98;52.21;;
77729;Laerm;68312;53.502;10.030;2023-06-19T01:24:56;43.67;36.94;53.34;;
77729;Laerm;68312;53.502;10.030;2023-06-19T01:27:23;44.55;38.80;54.52;;
77729;Laerm;68312;53.502;10.030;2023-06-19T01:29:50;44.57;40.13;50.84;;
77729;Laerm;68312;53.502;10.030;2023-06-19T01:32:35;43.22;39.21;50.86;;
77729;Laerm;68312;53.502;10.030;2023-06-19T01:35:08;44.86;38.78;52.46;;
77729;Laerm;68312;53.502;10.030;2023-06-19T01:37:37;45.07;40.74;53.25;;
77729;Laerm;68312;53.502;10.030;2023-06-19T01:40:09;44.59;40.45;51.87;;
77729;Laerm;68312;53.502;10.030;2023-06-19T01:42:39;43.60;38.65;50.94;;
77729;Laerm;68312;53.502;10.030;2023-06-19T01:45:07;43.72;38.59;53.00;;
77729;Laerm;68312;53.502;10.030;2023-06-19T01:47:33;44.62;40.27;50.84;;
77729;Laerm;68312;53.502;10.030;2023-06-19T01:49:59;43.78;38.68;54.51;;
77729;Laerm;68312;53.502;10.030;2023-06-19T01:52:25;42.89;37.71;49.11;;
77729;Laerm;68312;53.502;10.030;2023-06-19T01:54:51;44.60;40.09;51.94;;
77729;Laerm;68312;53.502;10.030;2023-06-19T01:57:17;45.37;40.89;50.91;;
77729;Laerm;68312;53.502;10.030;2023-06-19T01:59:42;45.72;41.99;53.83;;
77729;Laerm;68312;53.502;10.030;2023-06-19T02:02:08;45.44;41.15;50.34;;
77729;Laerm;68312;53.502;10.030;2023-06-19T02:04:33;44.90;41.47;50.40;;
77729;Laerm;68312;53.502;10.030;2023-06-19T02:06:59;45.62;41.63;51.42;;
77729;Laerm;68312;53.502;10.030;2023-06-19T02:09:24;54.45;41.91;69.37;;
77729;Laerm;68312;53.502;10.030;2023-06-19T02:11:50;55.67;42.70;71.96;;
77729;Laerm;68312;53.502;10.030;2023-06-19T02:14:15;55.02;41.48;76.03;;
77729;Laerm;68312;53.502;10.030;2023-06-19T02:16:41;50.10;42.76;66.87;;
77729;Laerm;68312;53.502;10.030;2023-06-19T02:19:06;52.97;42.79;71.02;;
77729;Laerm;68312;53.502;10.030;2023-06-19T02:21:32;47.98;43.73;54.46;;
77729;Laerm;68312;53.502;10.030;2023-06-19T02:23:57;48.09;43.38;57.72;;
77729;Laerm;68312;53.502;10.030;2023-06-19T02:26:23;46.24;42.43;52.74;;
77729;Laerm;68312;53.502;10.030;2023-06-19T02:28:48;47.60;41.34;60.52;;
77729;Laerm;68312;53.502;10.030;2023-06-19T02:31:14;48.34;41.67;66.97;;
77729;Laerm;68312;53.502;10.030;2023-06-19T02:33:39;51.16;40.75;68.24;;
77729;Laerm;68312;53.502;10.030;2023-06-19T02:36:05;48.04;41.47;58.58;;
77729;Laerm;68312;53.502;10.030;2023-06-19T02:38:30;48.16;42.74;57.93;;
77729;Laerm;68312;53.502;10.030;2023-06-19T02:40:56;51.92;43.32;68.70;;
77729;Laerm;68312;53.502;10.030;2023-06-19T02:43:21;51.58;43.79;67.75;;
77729;Laerm;68312;53.502;10.030;2023-06-19T02:45:46;49.81;44.15;58.94;;
77729;Laerm;68312;53.502;10.030;2023-06-19T02:48:12;48.79;44.17;59.43;;
77729;Laerm;68312;53.502;10.030;2023-06-19T02:50:37;48.74;44.53;56.87;;
77729;Laerm;68312;53.502;10.030;2023-06-19T02:53:03;48.72;44.94;62.87;;
77729;Laerm;68312;53.502;10.030;2023-06-19T02:55:28;49.13;44.91;55.32;;
77729;Laerm;68312;53.502;10.030;2023-06-19T02:57:54;49.19;44.89;54.29;;
77729;Laerm;68312;53.502;10.030;2023-06-19T03:00:19;49.30;44.87;54.41;;
77729;Laerm;68312;53.502;10.030;2023-06-19T03:02:45;49.98;45.82;56.19;;
77729;Laerm;68312;53.502;10.030;2023-06-19T03:05:12;49.47;45.52;59.69;;
77729;Laerm;68312;53.502;10.030;2023-06-19T03:07:38;49.08;45.39;53.92;;
77729;Laerm;68312;53.502;10.030;2023-06-19T03:10:04;49.73;45.75;54.36;;
77729;Laerm;68312;53.502;10.030;2023-06-19T03:12:29;49.56;45.77;55.38;;
77729;Laerm;68312;53.502;10.030;2023-06-19T03:14:55;49.41;45.92;57.59;;
77729;Laerm;68312;53.502;10.030;2023-06-19T03:17:20;50.01;46.43;54.44;;
77729;Laerm;68312;53.502;10.030;2023-06-19T03:19:46;50.30;46.33;58.98;;
77729;Laerm;68312;53.502;10.030;2023-06-19T03:22:11;50.16;46.52;66.51;;
77729;Laerm;68312;53.502;10.030;2023-06-19T03:24:37;49.34;45.90;56.51;;
77729;Laerm;68312;53.502;10.030;2023-06-19T03:27:03;48.68;45.20;53.79;;
77729;Laerm;68312;53.502;10.030;2023-06-19T03:29:29;48.88;45.64;55.13;;
77729;Laerm;68312;53.502;10.030;2023-06-19T03:31:55;49.87;44.71;73.93;;
77729;Laerm;68312;53.502;10.030;2023-06-19T03:34:20;50.40;45.64;63.48;;
77729;Laerm;68312;53.502;10.030;2023-06-19T03:36:47;52.39;45.90;69.09;;
77729;Laerm;68312;53.502;10.030;2023-06-19T03:39:13;50.61;46.16;57.51;;
77729;Laerm;68312;53.502;10.030;2023-06-19T03:41:38;50.96;47.41;55.85;;
77729;Laerm;68312;53.502;10.030;2023-06-19T03:44:04;50.98;47.06;61.87;;
77729;Laerm;68312;53.502;10.030;2023-06-19T03:46:29;51.34;48.10;60.80;;
77729;Laerm;68312;53.502;10.030;2023-06-19T03:48:55;51.24;47.36;57.66;;
77729;Laerm;68312;53.502;10.030;2023-06-19T03:51:20;51.51;47.78;59.44;;
77729;Laerm;68312;53.502;10.030;2023-06-19T03:53:46;51.96;48.21;58.30;;
77729;Laerm;68312;53.502;10.030;2023-06-19T03:56:11;51.91;48.47;60.14;;
77729;Laerm;68312;53.502;10.030;2023-06-19T03:58:37;51.82;47.91;63.15;;
77729;Laerm;68312;53.502;10.030;2023-06-19T04:01:02;52.69;48.33;62.62;;
77729;Laerm;68312;53.502;10.030;2023-06-19T04:03:29;51.71;48.42;56.87;;
77729;Laerm;68312;53.502;10.030;2023-06-19T04:05:54;51.59;48.07;58.50;;
77729;Laerm;68312;53.502;10.030;2023-06-19T04:08:20;53.43;47.96;63.54;;
77729;Laerm;68312;53.502;10.030;2023-06-19T04:10:45;52.03;47.48;68.23;;
77729;Laerm;68312;53.502;10.030;2023-06-19T04:13:12;51.86;47.78;59.90;;
77729;Laerm;68312;53.502;10.030;2023-06-19T04:15:37;51.11;47.53;59.53;;
77729;Laerm;68312;53.502;10.030;2023-06-19T04:18:03;53.44;47.45;60.44;;
77729;Laerm;68312;53.502;10.030;2023-06-19T04:20:28;51.44;48.00;58.44;;
77729;Laerm;68312;53.502;10.030;2023-06-19T04:22:54;55.79;48.54;67.34;;
77729;Laerm;68312;53.502;10.030;2023-06-19T04:25:19;51.94;48.44;57.83;;
77729;Laerm;68312;53.502;10.030;2023-06-19T04:27:45;55.83;48.84;65.26;;
77729;Laerm;68312;53.502;10.030;2023-06-19T04:30:11;56.47;48.65;68.84;;
77729;Laerm;68312;53.502;10.030;2023-06-19T04:32:37;57.58;49.33;66.22;;
77729;Laerm;68312;53.502;10.030;2023-06-19T04:35:03;55.71;49.11;66.74;;
77729;Laerm;68312;53.502;10.030;2023-06-19T04:37:29;57.46;49.64;67.14;;
77729;Laerm;68312;53.502;10.030;2023-06-19T04:39:54;57.19;50.36;68.85;;
77729;Laerm;68312;53.502;10.030;2023-06-19T04:42:20;58.24;49.86;86.67;;
77729;Laerm;68312;53.502;10.030;2023-06-19T04:44:47;54.10;49.64;79.66;;
77729;Laerm;68312;53.502;10.030;2023-06-19T04:47:14;53.11;49.85;60.61;;
77729;Laerm;68312;53.502;10.030;2023-06-19T04:49:39;54.23;49.56;63.01;;
77729;Laerm;68312;53.502;10.030;2023-06-19T04:52:05;53.39;49.97;60.73;;
77729;Laerm;68312;53.502;10.030;2023-06-19T04:54:31;54.80;50.66;64.48;;
77729;Laerm;68312;53.502;10.030;2023-06-19T04:56:56;53.29;50.09;58.63;;
77729;Laerm;68312;53.502;10.030;2023-06-19T04:59:22;55.16;50.07;62.52;;
77729;Laerm;68312;53.502;10.030;2023-06-19T05:01:47;54.55;48.20;77.15;;
77729;Laerm;68312;53.502;10.030;2023-06-19T05:04:13;52.80;49.27;59.63;;
77729;Laerm;68312;53.502;10.030;2023-06-19T05:06:38;52.35;48.94;57.50;;
77729;Laerm;68312;53.502;10.030;2023-06-19T05:09:04;53.43;49.98;68.42;;
77729;Laerm;68312;53.502;10.030;2023-06-19T05:11:29;52.16;49.05;59.66;;
77729;Laerm;68312;53.502;10.030;2023-06-19T05:13:56;52.07;48.87;63.67;;
77729;Laerm;68312;53.502;10.030;2023-06-19T05:16:22;52.93;48.61;59.80;;
77729;Laerm;68312;53.502;10.030;2023-06-19T05:18:48;52.97;48.59;70.44;;
77729;Laerm;68312;53.502;10.030;2023-06-19T05:21:13;57.30;48.69;69.31;;
77729;Laerm;68312;53.502;10.030;2023-06-19T05:23:39;52.76;48.80;62.29;;
77729;Laerm;68312;53.502;10.030;2023-06-19T05:26:04;52.33;48.99;57.87;;
77729;Laerm;68312;53.502;10.030;2023-06-19T05:28:30;52.45;49.23;64.09;;
77729;Laerm;68312;53.502;10.030;2023-06-19T05:30:55;52.22;48.07;64.23;;
77729;Laerm;68312;53.502;10.030;2023-06-19T05:33:21;52.85;48.14;63.19;;
77729;Laerm;68312;53.502;10.030;2023-06-19T05:35:46;50.76;47.40;56.59;;
77729;Laerm;68312;53.502;10.030;2023-06-19T05:38:12;54.43;48.08;65.00;;
77729;Laerm;68312;53.502;10.030;2023-06-19T05:40:37;50.64;47.38;55.56;;
77729;Laerm;68312;53.502;10.030;2023-06-19T05:43:03;50.31;46.68;65.17;;
77729;Laerm;68312;53.502;10.030;2023-06-19T05:45:29;51.86;47.37;60.57;;
77729;Laerm;68312;53.502;10.030;2023-06-19T05:47:54;54.22;46.25;69.15;;
77729;Laerm;68312;53.502;10.030;2023-06-19T05:50:20;49.91;46.42;57.30;;
77729;Laerm;68312;53.502;10.030;2023-06-19T05:52:45;50.22;46.84;55.92;;
77729;Laerm;68312;53.502;10.030;2023-06-19T05:55:11;51.01;46.87;60.71;;
77729;Laerm;68312;53.502;10.030;2023-06-19T05:57:36;52.74;48.27;63.03;;
77729;Laerm;68312;53.502;10.030;2023-06-19T06:00:02;51.02;47.28;59.56;;
77729;Laerm;68312;53.502;10.030;2023-06-19T06:02:28;50.81;47.30;60.99;;
77729;Laerm;68312;53.502;10.030;2023-06-19T06:04:53;50.89;47.34;59.11;;
77729;Laerm;68312;53.502;10.030;2023-06-19T06:07:19;52.21;47.47;65.05;;
77729;Laerm;68312;53.502;10.030;2023-06-19T06:09:44;51.78;46.64;64.76;;
77729;Laerm;68312;53.502;10.030;2023-06-19T06:12:10;51.86;46.30;63.79;;
77729;Laerm;68312;53.502;10.030;2023-06-19T06:14:35;49.83;46.12;56.38;;
77729;Laerm;68312;53.502;10.030;2023-06-19T06:17:01;49.35;46.10;54.91;;
77729;Laerm;68312;53.502;10.030;2023-06-19T06:19:26;49.62;45.88;61.81;;
77729;Laerm;68312;53.502;10.030;2023-06-19T06:21:52;49.74;45.25;60.99;;
77729;Laerm;68312;53.502;10.030;2023-06-19T06:24:17;48.74;44.67;56.44;;
77729;Laerm;68312;53.502;10.030;2023-06-19T06:26:43;47.88;44.10;57.49;;
77729;Laerm;68312;53.502;10.030;2023-06-19T06:29:08;50.69;45.52;75.07;;
77729;Laerm;68312;53.502;10.030;2023-06-19T06:31:38;49.49;45.61;59.23;;
77729;Laerm;68312;53.502;10.030;2023-06-19T06:34:04;49.56;45.32;61.68;;
77729;Laerm;68312;53.502;10.030;2023-06-19T06:36:29;52.40;45.55;63.30;;
77729;Laerm;68312;53.502;10.030;2023-06-19T06:38:55;49.58;45.17;58.18;;
77729;Laerm;68312;53.502;10.030;2023-06-19T06:41:20;48.60;44.21;53.72;;
77729;Laerm;68312;53.502;10.030;2023-06-19T06:43:46;49.14;45.52;56.20;;
77729;Laerm;68312;53.502;10.030;2023-06-19T06:46:12;55.54;46.57;67.83;;
77729;Laerm;68312;53.502;10.030;2023-06-19T06:48:37;49.55;46.05;58.26;;
77729;Laerm;68312;53.502;10.030;2023-06-19T06:51:03;49.19;45.16;55.67;;
77729;Laerm;68312;53.502;10.030;2023-06-19T06:53:29;49.75;45.25;66.05;;
77729;Laerm;68312;53.502;10.030;2023-06-19T06:55:55;50.56;46.27;75.06;;
77729;Laerm;68312;53.502;10.030;2023-06-19T06:58:21;53.27;45.40;66.50;;
77729;Laerm;68312;53.502;10.030;2023-06-19T07:00:46;49.80;45.89;59.79;;
77729;Laerm;68312;53.502;10.030;2023-06-19T07:03:12;51.93;45.64;74.28;;
77729;Laerm;68312;53.502;10.030;2023-06-19T07:05:37;52.84;45.55;68.51;;
77729;Laerm;68312;53.502;10.030;2023-06-19T07:08:03;51.51;47.33;60.07;;
77729;Laerm;68312;53.502;10.030;2023-06-19T07:10:29;50.06;45.67;60.95;;
77729;Laerm;68312;53.502;10.030;2023-06-19T07:12:55;51.98;45.46;62.88;;
77729;Laerm;68312;53.502;10.030;2023-06-19T07:15:20;49.35;45.80;57.14;;
77729;Laerm;68312;53.502;10.030;2023-06-19T07:17:46;51.30;45.97;62.82;;
77729;Laerm;68312;53.502;10.030;2023-06-19T07:20:12;49.72;45.71;55.45;;
77729;Laerm;68312;53.502;10.030;2023-06-19T07:22:38;50.41;45.93;58.42;;
77729;Laerm;68312;53.502;10.030;2023-06-19T07:25:06;50.04;46.46;59.81;;
77729;Laerm;68312;53.502;10.030;2023-06-19T07:27:32;49.61;46.14;58.88;;
77729;Laerm;68312;53.502;10.030;2023-06-19T07:29:58;49.69;45.83;54.97;;
77729;Laerm;68312;53.502;10.030;2023-06-19T07:32:24;48.46;45.42;56.09;;
77729;Laerm;68312;53.502;10.030;2023-06-19T07:34:49;48.16;45.19;53.25;;
77729;Laerm;68312;53.502;10.030;2023-06-19T07:37:15;48.34;44.29;61.26;;
77729;Laerm;68312;53.502;10.030;2023-06-19T07:39:40;48.56;45.14;52.75;;
77729;Laerm;68312;53.502;10.030;2023-06-19T07:42:07;51.07;45.04;68.22;;
77729;Laerm;68312;53.502;10.030;2023-06-19T07:44:32;52.97;45.33;65.46;;
77729;Laerm;68312;53.502;10.030;2023-06-19T07:46:58;48.25;44.58;57.15;;
77729;Laerm;68312;53.502;10.030;2023-06-19T07:49:24;47.55;44.14;58.53;;
77729;Laerm;68312;53.502;10.030;2023-06-19T07:51:49;49.03;45.16;57.14;;
77729;Laerm;68312;53.502;10.030;2023-06-19T07:54:15;49.91;45.36;59.65;;
77729;Laerm;68312;53.502;10.030;2023-06-19T07:56:40;49.99;45.87;60.97;;
77729;Laerm;68312;53.502;10.030;2023-06-19T07:59:06;48.34;44.25;59.03;;
77729;Laerm;68312;53.502;10.030;2023-06-19T08:01:31;51.64;43.93;78.59;;
77729;Laerm;68312;53.502;10.030;2023-06-19T08:03:57;47.28;43.80;58.03;;
77729;Laerm;68312;53.502;10.030;2023-06-19T08:06:22;74.50;43.61;102.26;;
77729;Laerm;68312;53.502;10.030;2023-06-19T08:08:48;47.63;43.89;67.77;;
77729;Laerm;68312;53.502;10.030;2023-06-19T08:11:13;50.66;43.65;80.10;;
77729;Laerm;68312;53.502;10.030;2023-06-19T08:13:39;50.77;44.40;63.69;;
77729;Laerm;68312;53.502;10.030;2023-06-19T08:16:04;46.53;43.33;55.44;;
77729;Laerm;68312;53.502;10.030;2023-06-19T08:18:30;52.66;43.89;71.11;;
77729;Laerm;68312;53.502;10.030;2023-06-19T08:20:55;48.47;43.54;58.92;;
77729;Laerm;68312;53.502;10.030;2023-06-19T08:23:20;47.51;43.17;56.36;;
77729;Laerm;68312;53.502;10.030;2023-06-19T08:25:46;53.45;44.33;65.03;;
77729;Laerm;68312;53.502;10.030;2023-06-19T08:28:11;48.67;44.48;57.06;;
77729;Laerm;68312;53.502;10.030;2023-06-19T08:30:37;48.97;43.79;60.38;;
77729;Laerm;68312;53.502;10.030;2023-06-19T08:33:02;47.13;43.04;60.45;;
77729;Laerm;68312;53.502;10.030;2023-06-19T08:35:28;56.53;43.62;67.15;;
77729;Laerm;68312;53.502;10.030;2023-06-19T08:37:53;48.87;43.51;59.93;;
77729;Laerm;68312;53.502;10.030;2023-06-19T08:40:19;49.21;43.91;64.90;;
77729;Laerm;68312;53.502;10.030;2023-06-19T08:42:45;47.90;43.74;56.21;;
77729;Laerm;68312;53.502;10.030;2023-06-19T08:45:10;53.29;42.69;66.52;;
77729;Laerm;68312;53.502;10.030;2023-06-19T08:47:36;47.44;43.07;57.65;;
77729;Laerm;68312;53.502;10.030;2023-06-19T08:50:02;47.04;43.15;58.68;;
77729;Laerm;68312;53.502;10.030;2023-06-19T08:52:27;52.39;43.01;68.57;;
77729;Laerm;68312;53.502;10.030;2023-06-19T08:54:53;54.49;43.54;66.69;;
77729;Laerm;68312;53.502;10.030;2023-06-19T08:57:18;52.33;43.28;73.80;;
77729;Laerm;68312;53.502;10.030;2023-06-19T08:59:51;48.27;42.45;65.51;;
77729;Laerm;68312;53.502;10.030;2023-06-19T09:02:17;46.69;42.13;59.27;;
77729;Laerm;68312;53.502;10.030;2023-06-19T09:04:43;50.22;41.78;68.60;;
77729;Laerm;68312;53.502;10.030;2023-06-19T09:07:09;46.34;41.94;52.54;;
77729;Laerm;68312;53.502;10.030;2023-06-19T09:09:37;55.11;42.85;66.40;;
77729;Laerm;68312;53.502;10.030;2023-06-19T09:12:13;46.87;42.97;58.15;;
77729;Laerm;68312;53.502;10.030;2023-06-19T09:14:45;54.94;42.45;67.46;;
77729;Laerm;68312;53.502;10.030;2023-06-19T09:17:20;53.02;42.50;66.82;;
77729;Laerm;68312;53.502;10.030;2023-06-19T09:19:52;47.27;43.22;62.95;;
77729;Laerm;68312;53.502;10.030;2023-06-19T09:22:21;46.20;42.57;58.80;;
77729;Laerm;68312;53.502;10.030;2023-06-19T09:24:48;46.47;43.02;53.41;;
77729;Laerm;68312;53.502;10.030;2023-06-19T09:27:18;48.04;43.24;60.15;;
77729;Laerm;68312;53.502;10.030;2023-06-19T09:29:50;46.61;42.92;53.80;;
77729;Laerm;68312;53.502;10.030;2023-06-19T09:32:27;49.25;42.84;75.52;;
77729;Laerm;68312;53.502;10.030;2023-06-19T09:34:56;53.20;44.52;73.01;;
77729;Laerm;68312;53.502;10.030;2023-06-19T09:37:29;52.71;41.92;66.54;;
77729;Laerm;68312;53.502;10.030;2023-06-19T09:40:01;53.13;43.59;65.39;;
77729;Laerm;68312;53.502;10.030;2023-06-19T09:42:34;50.15;44.10;78.10;;
77729;Laerm;68312;53.502;10.030;2023-06-19T09:45:09;50.05;43.30;65.47;;
77729;Laerm;68312;53.502;10.030;2023-06-19T09:47:44;47.98;44.23;57.09;;
77729;Laerm;68312;53.502;10.030;2023-06-19T09:50:14;47.90;43.28;62.27;;
77729;Laerm;68312;53.502;10.030;2023-06-19T09:52:42;47.59;43.76;57.56;;
77729;Laerm;68312;53.502;10.030;2023-06-19T09:55:13;48.34;43.64;63.81;;
77729;Laerm;68312;53.502;10.030;2023-06-19T09:57:41;51.40;43.31;63.97;;
77729;Laerm;68312;53.502;10.030;2023-06-19T10:00:10;53.84;42.53;69.11;;
77729;Laerm;68312;53.502;10.030;2023-06-19T10:02:36;50.08;44.14;61.22;;
77729;Laerm;68312;53.502;10.030;2023-06-19T10:05:03;47.44;42.57;55.76;;
77729;Laerm;68312;53.502;10.030;2023-06-19T10:07:35;49.72;42.50;66.84;;
77729;Laerm;68312;53.502;10.030;2023-06-19T10:10:22;45.77;41.71;55.35;;
77729;Laerm;68312;53.502;10.030;2023-06-19T10:12:48;45.49;42.06;51.78;;
77729;Laerm;68312;53.502;10.030;2023-06-19T10:15:22;45.39;41.79;53.03;;
77729;Laerm;68312;53.502;10.030;2023-06-19T10:17:53;47.35;43.31;56.00;;
77729;Laerm;68312;53.502;10.030;2023-06-19T10:20:31;47.69;42.61;65.86;;
77729;Laerm;68312;53.502;10.030;2023-06-19T10:23:21;46.34;42.45;59.83;;
77729;Laerm;68312;53.502;10.030;2023-06-19T10:28:26;48.92;41.49;62.55;;
77729;Laerm;68312;53.502;10.030;2023-06-19T10:31:06;44.63;39.69;52.92;;
77729;Laerm;68312;53.502;10.030;2023-06-19T10:33:35;45.66;40.46;58.10;;
77729;Laerm;68312;53.502;10.030;2023-06-19T10:36:20;45.10;41.95;57.22;;
77729;Laerm;68312;53.502;10.030;2023-06-19T10:38:46;55.52;41.38;72.30;;
77729;Laerm;68312;53.502;10.030;2023-06-19T10:41:23;46.55;42.51;54.08;;
77729;Laerm;68312;53.502;10.030;2023-06-19T10:44:07;51.68;43.03;66.18;;
77729;Laerm;68312;53.502;10.030;2023-06-19T10:46:35;49.16;43.86;59.82;;
77729;Laerm;68312;53.502;10.030;2023-06-19T10:49:06;45.25;41.55;51.82;;
77729;Laerm;68312;53.502;10.030;2023-06-19T10:51:38;50.02;42.18;72.10;;
77729;Laerm;68312;53.502;10.030;2023-06-19T10:54:05;45.10;41.08;51.05;;
77729;Laerm;68312;53.502;10.030;2023-06-19T10:56:30;45.07;41.23;51.70;;
77729;Laerm;68312;53.502;10.030;2023-06-19T10:59:06;45.75;39.83;59.08;;
77729;Laerm;68312;53.502;10.030;2023-06-19T11:01:54;46.99;40.02;63.87;;
77729;Laerm;68312;53.502;10.030;2023-06-19T11:04:19;51.69;41.52;68.25;;
77729;Laerm;68312;53.502;10.030;2023-06-19T11:06:45;46.76;41.87;54.79;;
77729;Laerm;68312;53.502;10.030;2023-06-19T11:09:13;47.94;41.94;55.93;;
77729;Laerm;68312;53.502;10.030;2023-06-19T11:11:44;47.65;43.98;54.74;;
77729;Laerm;68312;53.502;10.030;2023-06-19T11:14:15;46.96;42.87;60.22;;
77729;Laerm;68312;53.502;10.030;2023-06-19T11:16:44;47.08;43.86;56.65;;
77729;Laerm;68312;53.502;10.030;2023-06-19T11:19:17;47.74;42.54;57.29;;
77729;Laerm;68312;53.502;10.030;2023-06-19T11:21:51;47.88;43.34;64.65;;
77729;Laerm;68312;53.502;10.030;2023-06-19T11:24:18;47.97;43.14;56.99;;
77729;Laerm;68312;53.502;10.030;2023-06-19T11:26:48;48.48;43.23;62.75;;
77729;Laerm;68312;53.502;10.030;2023-06-19T11:29:26;51.24;45.31;65.79;;
77729;Laerm;68312;53.502;10.030;2023-06-19T11:32:08;47.49;41.93;56.09;;
77729;Laerm;68312;53.502;10.030;2023-06-19T11:34:36;47.86;42.08;62.18;;
77729;Laerm;68312;53.502;10.030;2023-06-19T11:37:17;54.24;42.70;71.07;;
77729;Laerm;68312;53.502;10.030;2023-06-19T11:39:47;47.88;41.10;65.11;;
77729;Laerm;68312;53.502;10.030;2023-06-19T11:42:14;53.08;41.43;70.67;;
77729;Laerm;68312;53.502;10.030;2023-06-19T11:45:01;52.12;44.01;67.13;;
77729;Laerm;68312;53.502;10.030;2023-06-19T11:47:33;48.26;43.90;60.14;;
77729;Laerm;68312;53.502;10.030;2023-06-19T11:50:00;47.75;43.82;57.31;;
77729;Laerm;68312;53.502;10.030;2023-06-19T11:52:26;52.66;46.02;70.14;;
77729;Laerm;68312;53.502;10.030;2023-06-19T11:54:52;48.43;43.06;65.90;;
77729;Laerm;68312;53.502;10.030;2023-06-19T11:57:17;47.93;42.08;60.55;;
77729;Laerm;68312;53.502;10.030;2023-06-19T11:59:43;47.80;41.95;62.69;;
77729;Laerm;68312;53.502;10.030;2023-06-19T12:02:09;51.67;41.33;67.50;;
77729;Laerm;68312;53.502;10.030;2023-06-19T12:04:35;45.88;40.93;55.07;;
77729;Laerm;68312;53.502;10.030;2023-06-19T12:07:01;45.33;40.88;57.10;;
77729;Laerm;68312;53.502;10.030;2023-06-19T12:09:27;44.99;41.58;52.64;;
77729;Laerm;68312;53.502;10.030;2023-06-19T12:11:53;47.90;43.27;67.39;;
77729;Laerm;68312;53.502;10.030;2023-06-19T12:14:18;52.41;42.07;71.01;;
77729;Laerm;68312;53.502;10.030;2023-06-19T12:16:46;46.34;41.73;61.84;;
77729;Laerm;68312;53.502;10.030;2023-06-19T12:19:12;44.31;39.09;53.03;;
77729;Laerm;68312;53.502;10.030;2023-06-19T12:21:37;44.78;40.89;54.75;;
77729;Laerm;68312;53.502;10.030;2023-06-19T12:24:04;50.90;41.77;65.26;;
77729;Laerm;68312;53.502;10.030;2023-06-19T12:26:29;54.32;42.45;72.82;;
77729;Laerm;68312;53.502;10.030;2023-06-19T12:28:55;45.10;40.83;51.05;;
77729;Laerm;68312;53.502;10.030;2023-06-19T12:31:20;47.61;41.56;61.40;;
77729;Laerm;68312;53.502;10.030;2023-06-19T12:33:46;47.69;43.16;61.00;;
77729;Laerm;68312;53.502;10.030;2023-06-19T12:36:11;49.56;41.03;65.43;;
77729;Laerm;68312;53.502;10.030;2023-06-19T12:38:37;43.73;39.80;54.83;;
77729;Laerm;68312;53.502;10.030;2023-06-19T12:41:02;43.77;39.31;56.36;;
77729;Laerm;68312;53.502;10.030;2023-06-19T12:43:27;46.97;41.28;57.28;;
77729;Laerm;68312;53.502;10.030;2023-06-19T12:45:53;44.72;40.39;51.97;;
77729;Laerm;68312;53.502;10.030;2023-06-19T12:48:19;45.62;41.03;57.58;;
77729;Laerm;68312;53.502;10.030;2023-06-19T12:50:44;44.72;39.96;55.40;;
77729;Laerm;68312;53.502;10.030;2023-06-19T12:53:09;45.32;39.29;58.86;;
77729;Laerm;68312;53.502;10.030;2023-06-19T12:55:35;44.69;40.55;56.55;;
77729;Laerm;68312;53.502;10.030;2023-06-19T12:58:00;45.65;39.73;58.65;;
77729;Laerm;68312;53.502;10.030;2023-06-19T13:00:26;45.04;41.29;59.01;;
77729;Laerm;68312;53.502;10.030;2023-06-19T13:02:51;48.98;40.63;61.38;;
77729;Laerm;68312;53.502;10.030;2023-06-19T13:05:17;52.45;42.14;65.57;;
77729;Laerm;68312;53.502;10.030;2023-06-19T13:07:42;46.20;40.75;55.76;;
77729;Laerm;68312;53.502;10.030;2023-06-19T13:10:09;44.97;40.50;59.30;;
77729;Laerm;68312;53.502;10.030;2023-06-19T13:12:35;50.47;40.27;72.68;;
77729;Laerm;68312;53.502;10.030;2023-06-19T13:15:01;46.43;39.29;63.90;;
77729;Laerm;68312;53.502;10.030;2023-06-19T13:17:26;45.97;38.44;71.35;;
77729;Laerm;68312;53.502;10.030;2023-06-19T13:19:51;43.96;39.35;57.38;;
77729;Laerm;68312;53.502;10.030;2023-06-19T13:22:17;44.07;39.53;55.68;;
77729;Laerm;68312;53.502;10.030;2023-06-19T13:24:42;44.45;40.23;53.43;;
77729;Laerm;68312;53.502;10.030;2023-06-19T13:27:08;44.75;40.34;56.95;;
77729;Laerm;68312;53.502;10.030;2023-06-19T13:29:34;44.35;40.18;55.50;;
77729;Laerm;68312;53.502;10.030;2023-06-19T13:32:00;48.18;39.84;61.62;;
77729;Laerm;68312;53.502;10.030;2023-06-19T13:34:26;47.74;41.57;62.81;;